Time;durP1;ratioP1;P1;durP2;ratioP2;P2;SDS_P1;SDS_P2;PMS_P1;PMS_P2;Temp;Humidity;BMP_temperature;BMP_pressure;BME280_temperature;BME280_humidity;BME280_pressure;Samples;Min_cycle;Max_cycle;Signal;HPM_P1;HPM_P2
2020/02/16 00:00:08;;;;;;;10.6;6.2;;;;;;;;;;;;;
2020/02/16 00:02:34;;;;;;;9.3;5.7;;;;;;;;;;;;;
2020/02/16 00:05:00;;;;;;;9.2;5.9;;;;;;;;;;;;;
2020/02/16 00:07:24;;;;;;;8.8;5.6;;;;;;;;;;;;;
2020/02/16 00:09:58;;;;;;;8.7;6.1;;;;;;;;;;;;;
2020/02/16 00:12:21;;;;;;;7.5;5.4;;;;;;;;;;;;;
2020/02/16 00:14:44;;;;;;;7.5;4.9;;;;;;;;;;;;;
2020/02/16 00:17:10;;;;;;;6.9;4.7;;;;;;;;;;;;;
2020/02/16 00:19:37;;;;;;;7.4;4.3;;;;;;;;;;;;;
2020/02/16 00:22:02;;;;;;;6.8;3.8;;;;;;;;;;;;;
2020/02/16 00:24:24;;;;;;;7.5;4.1;;;;;;;;;;;;;
2020/02/16 00:26:57;;;;;;;9.4;4.8;;;;;;;;;;;;;
2020/02/16 00:29:20;;;;;;;10.1;5.5;;;;;;;;;;;;;
2020/02/16 00:31:44;;;;;;;9.8;6.1;;;;;;;;;;;;;
2020/02/16 00:34:26;;;;;;;8.4;5.5;;;;;;;;;;;;;
2020/02/16 00:36:49;;;;;;;9.2;5.5;;;;;;;;;;;;;
2020/02/16 00:39:11;;;;;;;8.4;5.7;;;;;;;;;;;;;
2020/02/16 00:41:45;;;;;;;9.9;6.2;;;;;;;;;;;;;
2020/02/16 00:44:09;;;;;;;8.8;5.5;;;;;;;;;;;;;
2020/02/16 00:46:26;;;;;;;6.2;4.3;;;;;;;;;;;;;
2020/02/16 00:48:54;;;;;;;6.4;3.9;;;;;;;;;;;;;
2020/02/16 00:51:22;;;;;;;6.3;4.1;;;;;;;;;;;;;
2020/02/16 00:53:48;;;;;;;6.7;4.7;;;;;;;;;;;;;
2020/02/16 00:56:13;;;;;;;17;14.4;;;;;;;;;;;;;
2020/02/16 00:58:45;;;;;;;11.4;8.4;;;;;;;;;;;;;
2020/02/16 01:03:42;;;;;;;7.7;5.3;;;;;;;;;;;;;
2020/02/16 01:06:00;;;;;;;7.4;4.5;;;;;;;;;;;;;
2020/02/16 01:08:25;;;;;;;8;4.7;;;;;;;;;;;;;
2020/02/16 01:10:48;;;;;;;6.6;4.2;;;;;;;;;;;;;
2020/02/16 01:13:13;;;;;;;9;4.7;;;;;;;;;;;;;
2020/02/16 01:15:46;;;;;;;10;5.6;;;;;;;;;;;;;
2020/02/16 01:18:07;;;;;;;10.1;5.3;;;;;;;;;;;;;
2020/02/16 01:20:29;;;;;;;14.6;8.5;;;;;;;;;;;;;
2020/02/16 01:22:55;;;;;;;15.6;9;;;;;;;;;;;;;
2020/02/16 01:25:26;;;;;;;17.7;9.6;;;;;;;;;;;;;
2020/02/16 01:27:49;;;;;;;18.2;9.4;;;;;;;;;;;;;
2020/02/16 01:30:14;;;;;;;17.9;10.2;;;;;;;;;;;;;
2020/02/16 01:32:46;;;;;;;19.4;11.1;;;;;;;;;;;;;
2020/02/16 01:35:09;;;;;;;17.2;10;;;;;;;;;;;;;
2020/02/16 01:37:40;;;;;;;16.7;8.9;;;;;;;;;;;;;
2020/02/16 01:40:00;;;;;;;18.2;9.6;;;;;;;;;;;;;
2020/02/16 01:42:24;;;;;;;20.7;10.4;;;;;;;;;;;;;
2020/02/16 01:44:51;;;;;;;18.8;9.9;;;;;;;;;;;;;
2020/02/16 01:47:23;;;;;;;18.5;9.2;;;;;;;;;;;;;
2020/02/16 01:52:19;;;;;;;14.9;7.5;;;;;;;;;;;;;
2020/02/16 01:54:51;;;;;;;11.6;6.2;;;;;;;;;;;;;
2020/02/16 01:57:13;;;;;;;13.8;6.8;;;;;;;;;;;;;
2020/02/16 01:59:37;;;;;;;16.8;8.2;;;;;;;;;;;;;
2020/02/16 02:02:07;;;;;;;16.2;8.6;;;;;;;;;;;;;
2020/02/16 02:04:32;;;;;;;15.8;8.5;;;;;;;;;;;;;
2020/02/16 02:06:55;;;;;;;17.8;9.3;;;;;;;;;;;;;
2020/02/16 02:09:21;;;;;;;14.5;8.1;;;;;;;;;;;;;
2020/02/16 02:11:52;;;;;;;21.7;10.8;;;;;;;;;;;;;
2020/02/16 02:14:16;;;;;;;28;13.3;;;;;;;;;;;;;
2020/02/16 02:21:42;;;;;;;29.1;13.4;;;;;;;;;;;;;
2020/02/16 02:24:00;;;;;;;28.1;11.9;;;;;;;;;;;;;
2020/02/16 02:26:25;;;;;;;35.5;14.6;;;;;;;;;;;;;
2020/02/16 02:28:50;;;;;;;36.4;14.6;;;;;;;;;;;;;
2020/02/16 02:31:15;;;;;;;28.4;11.3;;;;;;;;;;;;;
2020/02/16 02:33:40;;;;;;;14.6;6.6;;;;;;;;;;;;;
2020/02/16 02:36:11;;;;;;;11.8;5.8;;;;;;;;;;;;;
2020/02/16 02:38:41;;;;;;;9.1;4.9;;;;;;;;;;;;;
2020/02/16 02:41:02;;;;;;;9;4.4;;;;;;;;;;;;;
2020/02/16 02:43:27;;;;;;;6.9;4.3;;;;;;;;;;;;;
2020/02/16 02:45:52;;;;;;;8.9;4.1;;;;;;;;;;;;;
2020/02/16 02:48:26;;;;;;;8.4;3.9;;;;;;;;;;;;;
2020/02/16 02:53:09;;;;;;;6.4;4.2;;;;;;;;;;;;;
2020/02/16 02:55:33;;;;;;;7.1;3.7;;;;;;;;;;;;;
2020/02/16 02:58:03;;;;;;;6.5;3.6;;;;;;;;;;;;;
2020/02/16 03:00:28;;;;;;;9.5;3.8;;;;;;;;;;;;;
2020/02/16 03:03:01;;;;;;;7.9;3.7;;;;;;;;;;;;;
2020/02/16 03:05:17;;;;;;;7.8;3.8;;;;;;;;;;;;;
2020/02/16 03:10:07;;;;;;;7.1;3.4;;;;;;;;;;;;;
2020/02/16 03:12:33;;;;;;;7;3.6;;;;;;;;;;;;;
2020/02/16 03:15:01;;;;;;;8.6;3.4;;;;;;;;;;;;;
2020/02/16 03:17:30;;;;;;;8.4;3.6;;;;;;;;;;;;;
2020/02/16 03:19:59;;;;;;;6.6;2.9;;;;;;;;;;;;;
2020/02/16 03:22:20;;;;;;;7.7;3.1;;;;;;;;;;;;;
2020/02/16 03:24:47;;;;;;;6.2;2.6;;;;;;;;;;;;;
2020/02/16 03:27:12;;;;;;;4.4;2.2;;;;;;;;;;;;;
2020/02/16 03:29:39;;;;;;;5.9;2.3;;;;;;;;;;;;;
2020/02/16 03:32:08;;;;;;;6.3;2.8;;;;;;;;;;;;;
2020/02/16 03:34:42;;;;;;;9;3.2;;;;;;;;;;;;;
2020/02/16 03:36:53;;;;;;;7.8;3.5;;;;;;;;;;;;;
2020/02/16 03:39:24;;;;;;;6.6;2.7;;;;;;;;;;;;;
2020/02/16 03:42:19;;;;;;;11.2;4.1;;;;;;;;;;;;;
2020/02/16 03:44:10;;;;;;;9.3;3.7;;;;;;;;;;;;;
2020/02/16 03:46:34;;;;;;;10;3.4;;;;;;;;;;;;;
2020/02/16 03:49:00;;;;;;;4.7;1.9;;;;;;;;;;;;;
2020/02/16 03:51:25;;;;;;;7.3;3;;;;;;;;;;;;;
2020/02/16 03:53:51;;;;;;;6.3;2.2;;;;;;;;;;;;;
2020/02/16 03:56:14;;;;;;;7.6;2;;;;;;;;;;;;;
2020/02/16 03:58:42;;;;;;;13;4;;;;;;;;;;;;;
2020/02/16 04:02:32;;;;;;;14;4.6;;;;;;;2.2;74.43164;942.3772;;;;
2020/02/16 04:05:06;;;;;;;9.4;3.4;;;;;;;2.05;74.96387;942.277;;;;
2020/02/16 04:07:36;;;;;;;9.5;3.3;;;;;;;2.13;74.77539;942.4016;;;;
2020/02/16 04:10:08;;;;;;;5.8;2.8;;;;;;;2.15;74.67969;942.4672;;;;
2020/02/16 04:12:36;;;;;;;9.2;4.6;;;;;;;2.09;75.26172;942.5105;;;;
2020/02/16 04:15:06;;;;;;;5.8;2.8;;;;;;;1.73;76.72949;942.516;;;;
2020/02/16 04:17:48;;;;;;;5.2;2.3;;;;;;;1.88;73.48828;942.4952;;;;
2020/02/16 04:20:16;;;;;;;8.7;2.7;;;;;;;2.23;72.54199;942.552;;;;
2020/02/16 04:23:26;;;;;;;7.9;3.2;;;;;;;2.12;73.57715;942.4478;;;;
2020/02/16 04:25:28;;;;;;;10.9;3.2;;;;;;;2.22;73.23438;942.4894;;;;
2020/02/16 04:28:12;;;;;;;10.3;3.1;;;;;;;2.18;73.48633;942.4627;;;;
2020/02/16 04:31:08;;;;;;;8.3;2.8;;;;;;;2.11;73.91016;942.4524;;;;
2020/02/16 04:33:13;;;;;;;11.1;3.3;;;;;;;2.26;73.90332;942.4121;;;;
2020/02/16 04:35:40;;;;;;;8;2.8;;;;;;;2.19;73.29688;942.3864;;;;
2020/02/16 04:38:14;;;;;;;6.2;2.3;;;;;;;2.42;71.28711;942.233;;;;
2020/02/16 04:40:44;;;;;;;6.3;2.6;;;;;;;2.31;72.34277;942.2296;;;;
2020/02/16 04:43:19;;;;;;;5.9;2.2;;;;;;;2.41;71.75488;942.2747;;;;
2020/02/16 04:45:53;;;;;;;5;2;;;;;;;2.18;72.78027;942.298;;;;
2020/02/16 04:48:14;;;;;;;5.7;2.5;;;;;;;2.28;72.42773;942.3572;;;;
2020/02/16 04:50:54;;;;;;;6.8;2.2;;;;;;;2.36;72.56348;942.3208;;;;
2020/02/16 04:53:27;;;;;;;5.8;2.4;;;;;;;2.21;73.40137;942.3052;;;;
2020/02/16 04:55:55;;;;;;;4.5;2.8;;;;;;;2.13;73.90234;942.1785;;;;
2020/02/16 04:58:27;;;;;;;7.7;5.1;;;;;;;2.29;73.14844;942.2133;;;;
2020/02/16 05:00:48;;;;;;;13.7;8.2;;;;;;;2.17;73.93262;942.2512;;;;
2020/02/16 05:03:17;;;;;;;18.8;11.1;;;;;;;2.3;73.37207;942.3116;;;;
2020/02/16 05:05:45;;;;;;;14.8;7.9;;;;;;;2.22;73.86328;942.2226;;;;
2020/02/16 05:08:11;;;;;;;6.8;4.3;;;;;;;2.39;73.39746;942.3417;;;;
2020/02/16 05:10:40;;;;;;;6;2.9;;;;;;;2.3;73.65332;942.3203;;;;
2020/02/16 05:13:06;;;;;;;7.9;3.1;;;;;;;2.25;73.86816;942.2417;;;;
2020/02/16 05:15:34;;;;;;;6.2;2.7;;;;;;;2.48;73.08984;942.2723;;;;
2020/02/16 05:18:19;;;;;;;6.8;2.6;;;;;;;2.28;73.66016;942.2393;;;;
2020/02/16 05:20:42;;;;;;;6.1;2.7;;;;;;;1.83;75.76367;942.2644;;;;
2020/02/16 05:23:10;;;;;;;8.6;3.3;;;;;;;1.73;76.8623;942.2608;;;;
2020/02/16 05:25:49;;;;;;;8.9;3.3;;;;;;;1.76;76.68945;942.2034;;;;
2020/02/16 05:28:16;;;;;;;8.8;3;;;;;;;1.98;75.7666;942.2614;;;;
2020/02/16 05:30:41;;;;;;;6.9;2.8;;;;;;;1.79;75.80176;942.3723;;;;
2020/02/16 05:33:08;;;;;;;5.5;2.6;;;;;;;1.83;75.56152;942.3878;;;;
2020/02/16 05:35:39;;;;;;;6.9;3.4;;;;;;;1.79;75.3877;942.4297;;;;
2020/02/16 05:38:25;;;;;;;5.6;2.7;;;;;;;1.79;75.57617;942.3784;;;;
2020/02/16 05:41:03;;;;;;;5.5;2.7;;;;;;;1.7;76.36719;942.5342;;;;
2020/02/16 05:43:28;;;;;;;5.9;2.3;;;;;;;1.68;76.47363;942.5333;;;;
2020/02/16 05:46:19;;;;;;;5.5;2.6;;;;;;;1.62;76.74414;942.4504;;;;
2020/02/16 05:48:43;;;;;;;6.4;3.5;;;;;;;1.74;76.74219;942.4474;;;;
2020/02/16 05:51:16;;;;;;;22;12;;;;;;;1.67;76.85254;942.4841;;;;
2020/02/16 05:53:40;;;;;;;10.6;5.7;;;;;;;1.63;77.30469;942.4972;;;;
2020/02/16 05:56:19;;;;;;;14.7;7.7;;;;;;;1.6;77.08691;942.4404;;;;
2020/02/16 05:58:56;;;;;;;7.5;4.1;;;;;;;1.92;75.45508;942.4014;;;;
2020/02/16 06:01:56;;;;;;;7.1;3.4;;;;;;;1.97;75.00586;942.3466;;;;
2020/02/16 06:03:44;;;;;;;5.9;3;;;;;;;2.39;73.68066;942.4214;;;;
2020/02/16 06:06:16;;;;;;;7.8;4.3;;;;;;;2.31;72.45508;942.4789;;;;
2020/02/16 06:08:51;;;;;;;4.8;3.1;;;;;;;2.39;72.59082;942.3181;;;;
2020/02/16 06:11:24;;;;;;;3;2.2;;;;;;;2.5;69.3291;942.2647;;;;
2020/02/16 06:13:57;;;;;;;4.8;3;;;;;;;2.64;70.85352;942.2935;;;;
2020/02/16 06:16:29;;;;;;;4.4;2.4;;;;;;;2.45;72.25586;942.264;;;;
2020/02/16 06:18:55;;;;;;;5.7;2.6;;;;;;;2.21;73.9834;942.1339;;;;
2020/02/16 06:23:48;;;;;;;6.3;3.8;;;;;;;2.05;75.73438;942.173;;;;
2020/02/16 06:26:14;;;;;;;7.2;3.2;;;;;;;1.96;76.47949;942.1278;;;;
2020/02/16 06:28:44;;;;;;;5.3;3.6;;;;;;;1.95;76.27637;942.264;;;;
2020/02/16 06:31:18;;;;;;;7.8;5.1;;;;;;;2.03;75.91113;942.1705;;;;
2020/02/16 06:34:11;;;;;;;10.9;7.6;;;;;;;2.18;74.67285;942.0773;;;;
2020/02/16 06:36:45;;;;;;;10.3;6.8;;;;;;;2.38;76.62305;942.2;;;;
2020/02/16 06:39:12;;;;;;;8.9;4.5;;;;;;;2.48;74.31055;942.2456;;;;
2020/02/16 06:41:46;;;;;;;7.2;3;;;;;;;2.56;73.86523;942.2495;;;;
2020/02/16 06:44:15;;;;;;;5.7;3.1;;;;;;;2.74;72.61914;942.1296;;;;
2020/02/16 06:48:14;;;;;;;8.7;5.9;;;;;;;2.8;72.42578;942.0723;;;;
2020/02/16 06:49:16;;;;;;;10.5;7.6;;;;;;;2.68;72.82227;942.1418;;;;
2020/02/16 06:57:37;;;;;;;13.7;8.6;;;;;;;3.04;70.5957;942.1184;;;;
2020/02/16 07:00:07;;;;;;;7.2;4.7;;;;;;;3.24;67.81152;941.9927;;;;
2020/02/16 07:02:36;;;;;;;9.9;6.9;;;;;;;3.16;69.95117;942.0541;;;;
2020/02/16 07:05:07;;;;;;;12.9;7.6;;;;;;;3.4;69.33984;942.1119;;;;
2020/02/16 07:08:10;;;;;;;11.4;7;;;;;;;3.46;68.66406;942.0998;;;;
2020/02/16 07:10:31;;;;;;;12.5;9.7;;;;;;;3.23;69.79492;941.9897;;;;
2020/02/16 07:12:56;;;;;;;13.1;9.4;;;;;;;3.31;69.75391;942.0059;;;;
2020/02/16 07:15:32;;;;;;;12.1;7.6;;;;;;;3.32;70.00195;941.9772;;;;
2020/02/16 07:18:02;;;;;;;9.1;5.5;;;;;;;3.17;70.57129;941.9313;;;;
2020/02/16 07:20:27;;;;;;;10.4;5.8;;;;;;;3.28;70.39746;941.9526;;;;
2020/02/16 07:22:52;;;;;;;8.5;5.9;;;;;;;3.3;70.64844;941.9213;;;;
2020/02/16 07:25:22;;;;;;;12;8;;;;;;;3.35;70.02734;941.8139;;;;
2020/02/16 07:28:02;;;;;;;9.9;4.8;;;;;;;3.35;69.50098;941.7338;;;;
2020/02/16 07:30:19;;;;;;;6.9;4.1;;;;;;;3.56;68.97363;941.7317;;;;
2020/02/16 07:32:58;;;;;;;7.8;3.6;;;;;;;3.38;69.7627;941.7512;;;;
2020/02/16 07:35:24;;;;;;;8.5;3;;;;;;;3.49;69.21094;941.8036;;;;
2020/02/16 07:38:04;;;;;;;14.5;8.2;;;;;;;3.48;69.07324;941.7549;;;;
2020/02/16 07:40:32;;;;;;;13.9;6.6;;;;;;;3.69;68.52246;941.7063;;;;
2020/02/16 07:43:14;;;;;;;7.3;6.1;;;;;;;3.87;67.86523;941.673;;;;
2020/02/16 07:45:38;;;;;;;12.7;5.8;;;;;;;3.9;68.06055;941.6409;;;;
2020/02/16 07:48:04;;;;;;;8.1;5.1;;;;;;;3.93;68.38184;941.6147;;;;
2020/02/16 07:50:35;;;;;;;16.4;6.3;;;;;;;3.86;68.97656;941.6;;;;
2020/02/16 07:53:05;;;;;;;12.9;7.8;;;;;;;3.98;67.82813;941.6082;;;;
2020/02/16 07:55:37;;;;;;;14.2;8.1;;;;;;;4.18;67.97168;941.7509;;;;
2020/02/16 07:58:08;;;;;;;14.2;8.4;;;;;;;4.18;67.5332;941.7422;;;;
2020/02/16 08:00:43;;;;;;;23.2;9.3;;;;;;;4.31;67.33984;941.5764;;;;
2020/02/16 08:03:11;;;;;;;12.2;7.2;;;;;;;4.23;67.39258;941.533;;;;
2020/02/16 08:05:56;;;;;;;13.6;6.7;;;;;;;4.32;66.75586;941.5556;;;;
2020/02/16 08:08:44;;;;;;;12.6;6.4;;;;;;;4.29;66.3916;941.5955;;;;
2020/02/16 08:10:57;;;;;;;11.1;6;;;;;;;4.33;66.62207;941.6403;;;;
2020/02/16 08:13:20;;;;;;;8.8;5.5;;;;;;;4.47;66.16113;941.5306;;;;
2020/02/16 08:15:52;;;;;;;20.3;7.4;;;;;;;4.53;66.49707;941.7255;;;;
2020/02/16 08:18:24;;;;;;;42.7;24.4;;;;;;;4.74;64.56934;941.605;;;;
2020/02/16 08:20:45;;;;;;;36.1;19.8;;;;;;;5.03;64.3877;941.5313;;;;
2020/02/16 08:23:12;;;;;;;56.6;28.3;;;;;;;5.22;63.05176;941.5463;;;;
2020/02/16 08:25:44;;;;;;;29.7;14.5;;;;;;;5.4;63.71973;941.6533;;;;
2020/02/16 08:28:35;;;;;;;21.8;12.7;;;;;;;5.39;64.48633;941.6316;;;;
2020/02/16 08:31:08;;;;;;;18.3;12.7;;;;;;;6;62.81641;941.6239;;;;
2020/02/16 08:33:33;;;;;;;24.5;12.8;;;;;;;5.84;61.09961;941.5963;;;;
2020/02/16 08:36:04;;;;;;;27.8;12.9;;;;;;;6.42;59.33887;941.5917;;;;
2020/02/16 08:38:38;;;;;;;40.5;13;;;;;;;6.59;58.22949;941.6094;;;;
2020/02/16 08:41:30;;;;;;;43.7;20.7;;;;;;;6.61;59.05957;941.6057;;;;
2020/02/16 08:43:40;;;;;;;33.5;15.8;;;;;;;6.58;58.7832;941.4414;;;;
2020/02/16 08:46:16;;;;;;;36.7;13.1;;;;;;;6.62;58.91309;941.428;;;;
2020/02/16 08:51:34;;;;;;;21.7;12.7;;;;;;;6.8;59.71973;941.2867;;;;
2020/02/16 08:54:08;;;;;;;24.4;13.2;;;;;;;7.14;59.83496;941.3086;;;;
2020/02/16 08:56:46;;;;;;;18.1;13.1;;;;;;;6.86;59.08301;941.3102;;;;
2020/02/16 08:59:12;;;;;;;30.6;14.1;;;;;;;7.15;59.12305;941.2392;;;;
2020/02/16 09:01:52;;;;;;;21.8;12.8;;;;;;;7.16;58.44336;941.2141;;;;
2020/02/16 09:04:15;;;;;;;27.2;13.4;;;;;;;7.43;56.28223;941.2012;;;;
2020/02/16 09:06:42;;;;;;;28.8;10.6;;;;;;;8;54.46094;941.0573;;;;
2020/02/16 09:09:09;;;;;;;22.6;8.2;;;;;;;8.56;52.88379;941.0527;;;;
2020/02/16 09:11:57;;;;;;;18;8.6;;;;;;;8.87;51.47754;940.9064;;;;
2020/02/16 09:14:34;;;;;;;16.1;6.5;;;;;;;9.23;50.1543;940.9219;;;;
2020/02/16 09:17:03;;;;;;;16.7;5.9;;;;;;;9.21;49.58203;940.7892;;;;
2020/02/16 09:19:32;;;;;;;26.1;5.4;;;;;;;9.42;48.85547;940.7786;;;;
2020/02/16 09:22:05;;;;;;;24.6;6.2;;;;;;;9.69;49.58105;940.859;;;;
2020/02/16 09:24:32;;;;;;;13.1;8.3;;;;;;;9.97;49.94434;940.7461;;;;
2020/02/16 09:27:04;;;;;;;16.9;8.8;;;;;;;10.94;47.80469;940.781;;;;
2020/02/16 09:29:45;;;;;;;20.7;8;;;;;;;11.61;46.40137;940.7994;;;;
2020/02/16 09:32:07;;;;;;;21.2;7;;;;;;;11.69;46.27246;940.7397;;;;
2020/02/16 09:34:35;;;;;;;23.3;7.4;;;;;;;12.01;45.08203;940.7406;;;;
2020/02/16 09:36:59;;;;;;;14.9;6.7;;;;;;;11.72;45.77344;940.6937;;;;
2020/02/16 09:39:28;;;;;;;29.8;12.7;;;;;;;11.61;47.11133;940.7355;;;;
2020/02/16 09:41:53;;;;;;;18.4;9;;;;;;;12.12;45.53906;940.6755;;;;
2020/02/16 09:44:27;;;;;;;14.6;7.6;;;;;;;11.72;46.02441;940.7193;;;;
2020/02/16 09:47:17;;;;;;;14.7;7.4;;;;;;;11.87;46.09766;940.734;;;;
2020/02/16 09:49:33;;;;;;;12.3;5.5;;;;;;;11.67;44.25684;940.6822;;;;
2020/02/16 09:52:15;;;;;;;14.7;5.8;;;;;;;11.3;45.47656;940.6867;;;;
2020/02/16 09:54:57;;;;;;;28.6;6.4;;;;;;;11.36;42.17676;940.7528;;;;
2020/02/16 09:57:18;;;;;;;41.5;17.3;;;;;;;11.78;44.38184;940.8155;;;;
2020/02/16 09:59:46;;;;;;;33.8;16;;;;;;;12.1;45.06738;940.7456;;;;
2020/02/16 10:02:11;;;;;;;21.2;9.3;;;;;;;12.63;42.94238;940.611;;;;
2020/02/16 10:04:43;;;;;;;41;14.7;;;;;;;12.89;41.83105;940.6852;;;;
2020/02/16 10:07:14;;;;;;;38.9;16.2;;;;;;;13.14;41.10938;940.7112;;;;
2020/02/16 10:09:49;;;;;;;37.3;16.1;;;;;;;13.36;42.1875;940.6293;;;;
2020/02/16 10:12:19;;;;;;;26;8.8;;;;;;;13.48;42.55664;940.6467;;;;
2020/02/16 10:14:48;;;;;;;18.4;6.6;;;;;;;13.51;43.45508;940.6355;;;;
2020/02/16 10:17:21;;;;;;;14.3;6.7;;;;;;;13.76;42.39941;940.6625;;;;
2020/02/16 10:19:55;;;;;;;17.8;6.6;;;;;;;13.57;42.54102;940.6172;;;;
2020/02/16 10:22:33;;;;;;;12.7;5.5;;;;;;;13.88;40.37402;940.6285;;;;
2020/02/16 10:25:06;;;;;;;17.2;5.8;;;;;;;13.55;40.88379;940.6292;;;;
2020/02/16 10:27:36;;;;;;;22.6;5.8;;;;;;;13.51;40.47754;940.5115;;;;
2020/02/16 10:30:11;;;;;;;29.9;7.9;;;;;;;13.54;40.12402;940.5267;;;;
2020/02/16 10:35:48;;;;;;;53.4;21.5;;;;;;;13.24;40.54492;940.5146;;;;
2020/02/16 10:37:41;;;;;;;56.1;24;;;;;;;13.84;38.80566;940.4148;;;;
2020/02/16 10:45:47;;;;;;;9.6;4.4;;;;;;;16.27;34.81055;940.2645;;;;
2020/02/16 10:51:02;;;;;;;6.9;1.8;;;;;;;18.08;30.55176;940.1609;;;;
2020/02/16 10:53:29;;;;;;;11.7;2.7;;;;;;;18.93;28.83105;940.188;;;;
2020/02/16 10:56:21;;;;;;;2.7;1.1;;;;;;;19.71;27.70313;940.0906;;;;
2020/02/16 10:58:35;;;;;;;5.6;0.9;;;;;;;19.65;26.66211;940.0792;;;;
2020/02/16 11:01:01;;;;;;;4.8;1.6;;;;;;;19.22;26.96191;940.0687;;;;
2020/02/16 11:03:30;;;;;;;7.9;3.2;;;;;;;19.34;24.80273;940.014;;;;
2020/02/16 11:06:03;;;;;;;6.5;2;;;;;;;19.51;25.5;940.0703;;;;
2020/02/16 11:08:46;;;;;;;6.8;2.7;;;;;;;19.41;22.63867;940.019;;;;
2020/02/16 11:11:13;;;;;;;3.4;1.4;;;;;;;20.84;22.5957;939.9317;;;;
2020/02/16 11:13:57;;;;;;;9.5;2.3;;;;;;;22.92;20.24707;939.9242;;;;
2020/02/16 11:16:23;;;;;;;4;1.3;;;;;;;23.8;19.49902;939.9727;;;;
2020/02/16 11:18:58;;;;;;;3.9;1.1;;;;;;;24.45;18.56055;939.9699;;;;
2020/02/16 11:21:33;;;;;;;0.5;0.4;;;;;;;24.58;19.30859;940.0069;;;;
2020/02/16 11:24:09;;;;;;;1.3;0.6;;;;;;;24.39;20.24414;940.0935;;;;
2020/02/16 11:26:37;;;;;;;1.8;0.6;;;;;;;24.29;19.34375;940.0917;;;;
2020/02/16 11:29:17;;;;;;;0.7;0.5;;;;;;;24.31;19.82715;940.1017;;;;
2020/02/16 11:31:40;;;;;;;1.5;0.8;;;;;;;24.2;20.62305;940.2096;;;;
2020/02/16 11:34:15;;;;;;;0.9;0.8;;;;;;;23.79;22.44043;940.2388;;;;
2020/02/16 11:36:41;;;;;;;1.4;0.8;;;;;;;22.86;25.12988;940.313;;;;
2020/02/16 11:39:13;;;;;;;1.4;1.1;;;;;;;22.9;24.62695;940.3361;;;;
2020/02/16 11:41:52;;;;;;;2.2;1;;;;;;;23.97;21.68457;940.32;;;;
2020/02/16 11:44:26;;;;;;;3;1;;;;;;;24.45;20.97656;940.2891;;;;
2020/02/16 11:46:50;;;;;;;1.3;0.8;;;;;;;24.83;20.46387;940.1351;;;;
2020/02/16 11:49:15;;;;;;;1.7;0.8;;;;;;;25.15;19.44043;940.1259;;;;
2020/02/16 11:51:48;;;;;;;1.6;0.8;;;;;;;25.43;18.4248;940.0669;;;;
2020/02/16 11:54:31;;;;;;;2.2;0.9;;;;;;;26.17;17.95801;940.0781;;;;
2020/02/16 11:57:15;;;;;;;1.4;0.9;;;;;;;26.42;18.16895;940.063;;;;
2020/02/16 11:59:45;;;;;;;1.8;0.9;;;;;;;25.43;18.27148;940.1124;;;;
2020/02/16 12:02:31;;;;;;;2;0.9;;;;;;;24.93;19.52441;940.1106;;;;
2020/02/16 12:04:54;;;;;;;1.5;0.9;;;;;;;24.86;19.96973;940.1136;;;;
2020/02/16 12:07:26;;;;;;;2.8;1;;;;;;;24.69;19.8916;940.1108;;;;
2020/02/16 12:10:09;;;;;;;1.5;0.8;;;;;;;24.24;20.07227;940.14;;;;
2020/02/16 12:12:32;;;;;;;1.3;0.7;;;;;;;23.07;21.74609;940.0809;;;;
2020/02/16 12:15:14;;;;;;;1;0.7;;;;;;;21.87;23.03516;939.997;;;;
2020/02/16 12:17:39;;;;;;;1.6;0.8;;;;;;;21.28;23.84668;939.9988;;;;
2020/02/16 12:20:21;;;;;;;1.4;0.9;;;;;;;20.93;25.38281;939.9844;;;;
2020/02/16 12:23:03;;;;;;;1;0.8;;;;;;;20.55;26.48242;939.9439;;;;
2020/02/16 12:25:36;;;;;;;1.6;0.9;;;;;;;20.9;26.00098;939.8547;;;;
2020/02/16 12:29:20;;;;;;;1.3;0.7;;;;;;;21.51;22.00977;939.8439;;;;
2020/02/16 12:30:50;;;;;;;1;0.6;;;;;;;22.05;20.54785;939.8674;;;;
2020/02/16 12:40:05;;;;;;;1.2;0.7;;;;;;;22.88;20.16406;939.7494;;;;
2020/02/16 12:41:36;;;;;;;1.3;0.7;;;;;;;22.66;21.40918;939.7723;;;;
2020/02/16 12:43:53;;;;;;;2;0.8;;;;;;;23.12;20.50293;939.6957;;;;
2020/02/16 12:46:46;;;;;;;0.9;0.7;;;;;;;24.02;19.37891;939.66;;;;
2020/02/16 12:49:36;;;;;;;0.9;0.6;;;;;;;24.31;17.80176;939.5408;;;;
2020/02/16 12:52:02;;;;;;;1.1;0.7;;;;;;;23.52;18.14648;939.5005;;;;
2020/02/16 12:54:28;;;;;;;1.4;0.8;;;;;;;22.78;18.49219;939.5322;;;;
2020/02/16 12:57:03;;;;;;;9.3;1.8;;;;;;;22.12;20.14063;939.4829;;;;
2020/02/16 12:59:27;;;;;;;6;1.4;;;;;;;21.56;21.50879;939.407;;;;
2020/02/16 13:01:59;;;;;;;4.2;1.2;;;;;;;21.22;22.46289;939.3956;;;;
2020/02/16 13:04:33;;;;;;;3.3;1.7;;;;;;;20.59;23.27246;939.3286;;;;
2020/02/16 13:07:15;;;;;;;5.1;1.7;;;;;;;19.89;22.55859;939.3141;;;;
2020/02/16 13:10:16;;;;;;;5.2;1.9;;;;;;;19.2;23.35059;939.312;;;;
2020/02/16 13:13:32;;;;;;;8.2;2;;;;;;;19.15;27.71582;939.2483;;;;
2020/02/16 13:16:16;;;;;;;4.9;1.4;;;;;;;18.99;23.58398;939.1797;;;;
2020/02/16 13:17:39;;;;;;;4.4;1.7;;;;;;;18.87;25.125;939.1855;;;;
2020/02/16 13:20:32;;;;;;;6.3;1.7;;;;;;;18.82;25.7627;939.1155;;;;
2020/02/16 13:23:06;;;;;;;6.2;2;;;;;;;18.86;26.11426;939.1624;;;;
2020/02/16 13:25:39;;;;;;;6.3;2.2;;;;;;;18.73;26.15234;939.1075;;;;
2020/02/16 13:28:17;;;;;;;8.2;2.4;;;;;;;18.61;25.17969;939.1093;;;;
2020/02/16 13:30:40;;;;;;;8.1;2.9;;;;;;;18.37;25.73633;939.0242;;;;
2020/02/16 13:33:14;;;;;;;12.6;3;;;;;;;18.25;25.72949;938.9749;;;;
2020/02/16 13:36:15;;;;;;;2.8;2.4;;;;;;;18.27;25.44043;938.8834;;;;
2020/02/16 13:38:55;;;;;;;3.5;1.8;;;;;;;18.11;25.60449;938.7822;;;;
2020/02/16 13:42:29;;;;;;;3.3;2;;;;;;;18.14;26.75684;938.7897;;;;
2020/02/16 13:45:32;;;;;;;8.7;2.4;;;;;;;18.53;26.07129;938.7133;;;;
2020/02/16 13:47:52;;;;;;;9.5;2;;;;;;;18.58;27.30664;938.6027;;;;
2020/02/16 13:51:16;;;;;;;9.6;2.1;;;;;;;18.73;27.18848;938.4531;;;;
2020/02/16 13:53:43;;;;;;;6;2.3;;;;;;;18.73;26.83984;938.5145;;;;
2020/02/16 13:56:14;;;;;;;5.1;2.1;;;;;;;18.51;26.46582;938.5604;;;;
2020/02/16 13:58:47;;;;;;;6.7;2.1;;;;;;;18.68;26.70801;938.6099;;;;
2020/02/16 14:01:09;;;;;;;6.5;2;;;;;;;19.2;26.30859;938.5634;;;;
2020/02/16 14:03:43;;;;;;;3.7;2.3;;;;;;;19.38;25.64355;938.4746;;;;
2020/02/16 14:06:14;;;;;;;2.8;1.5;;;;;;;19.19;24.93457;938.4167;;;;
2020/02/16 14:09:16;;;;;;;5.6;1.5;;;;;;;19.25;25.40332;938.4004;;;;
2020/02/16 14:11:40;;;;;;;2.6;1.5;;;;;;;19.08;25.9873;938.3596;;;;
2020/02/16 14:14:05;;;;;;;8.2;1.6;;;;;;;19.11;26.35059;938.2975;;;;
2020/02/16 14:17:13;;;;;;;6;1.2;;;;;;;19.02;26.40234;938.3575;;;;
2020/02/16 14:19:30;;;;;;;4.1;1.3;;;;;;;19.11;26.83887;938.3169;;;;
2020/02/16 14:24:59;;;;;;;7.2;1.4;;;;;;;18.84;26.53223;938.1945;;;;
2020/02/16 14:27:25;;;;;;;5.5;1.7;;;;;;;18.59;27.59766;938.1717;;;;
2020/02/16 14:30:14;;;;;;;3.6;1.7;;;;;;;18.35;27.74609;938.1739;;;;
2020/02/16 14:32:40;;;;;;;4.9;1.8;;;;;;;18.07;28.23926;938.1512;;;;
2020/02/16 14:35:17;;;;;;;4.6;2.2;;;;;;;17.62;28.52344;938.1152;;;;
2020/02/16 14:37:50;;;;;;;7.3;2.5;;;;;;;17.58;29.10156;938.035;;;;
2020/02/16 14:40:19;;;;;;;4.5;2.1;;;;;;;17.41;29.53125;938.0868;;;;
2020/02/16 14:42:57;;;;;;;4.1;2;;;;;;;17.35;29.6543;937.98;;;;
2020/02/16 14:45:22;;;;;;;6.4;2.1;;;;;;;17.41;30.74902;937.8969;;;;
2020/02/16 14:47:50;;;;;;;4.4;1.5;;;;;;;17.52;29.89844;937.83;;;;
2020/02/16 14:50:19;;;;;;;6;1.4;;;;;;;17.53;30.28223;937.8072;;;;
2020/02/16 14:52:55;;;;;;;4.4;1.5;;;;;;;17.53;29.36523;937.7389;;;;
2020/02/16 14:55:20;;;;;;;5.3;1.3;;;;;;;17.64;28.21191;937.6976;;;;
2020/02/16 14:57:45;;;;;;;7.7;1.5;;;;;;;17.48;28.375;937.7213;;;;
2020/02/16 15:00:24;;;;;;;5;1.4;;;;;;;17.33;28.16895;937.6439;;;;
2020/02/16 15:02:50;;;;;;;9.1;2.4;;;;;;;17.34;29.3291;937.61;;;;
2020/02/16 15:05:20;;;;;;;3.5;1.8;;;;;;;17.26;28.61621;937.4947;;;;
2020/02/16 15:07:45;;;;;;;4;1.8;;;;;;;17.01;29.14453;937.512;;;;
2020/02/16 15:10:19;;;;;;;8;2.3;;;;;;;16.93;30.19336;937.4296;;;;
2020/02/16 15:13:14;;;;;;;4.7;1.6;;;;;;;16.91;29.34668;937.3898;;;;
2020/02/16 15:18:19;;;;;;;18.1;2.9;;;;;;;16.9;31.33887;937.4125;;;;
2020/02/16 15:20:52;;;;;;;9.1;2.2;;;;;;;16.88;31.66113;937.3653;;;;
2020/02/16 15:24:17;;;;;;;10.8;2.4;;;;;;;16.73;31.11816;937.2935;;;;
2020/02/16 15:27:19;;;;;;;5.1;1.7;;;;;;;16.69;31.20801;937.323;;;;
2020/02/16 15:29:58;;;;;;;11.7;3.1;;;;;;;16.8;32.75684;937.3004;;;;
2020/02/16 15:32:31;;;;;;;16.1;3.7;;;;;;;16.71;32.34473;937.3186;;;;
2020/02/16 15:34:56;;;;;;;14.7;5.4;;;;;;;16.75;32.41699;937.3011;;;;
2020/02/16 15:37:22;;;;;;;21.9;5.9;;;;;;;16.63;33.4502;937.396;;;;
2020/02/16 15:39:51;;;;;;;19.6;5.7;;;;;;;16.63;34.44531;937.4345;;;;
2020/02/16 15:42:19;;;;;;;12.4;3.5;;;;;;;16.57;36.88379;937.4319;;;;
2020/02/16 15:44:51;;;;;;;16.1;5.4;;;;;;;16.54;36.87012;937.426;;;;
2020/02/16 15:47:23;;;;;;;16.1;4.9;;;;;;;16.38;37.73633;937.4014;;;;
2020/02/16 15:49:56;;;;;;;15.1;4.2;;;;;;;16.21;39.43359;937.3747;;;;
2020/02/16 15:52:29;;;;;;;24;5;;;;;;;16.18;37.89258;937.4256;;;;
2020/02/16 15:55:00;;;;;;;26.7;5.3;;;;;;;16.13;39.09082;937.4023;;;;
2020/02/16 15:57:26;;;;;;;8.4;3.6;;;;;;;15.92;41.11816;937.3982;;;;
2020/02/16 16:00:02;;;;;;;13.8;6.3;;;;;;;15.67;41.03711;937.3833;;;;
2020/02/16 16:02:28;;;;;;;16.7;9.8;;;;;;;15.4;41.76172;937.3477;;;;
2020/02/16 16:05:04;;;;;;;34.6;17.7;;;;;;;15.21;42.28613;937.3661;;;;
2020/02/16 16:07:38;;;;;;;30;14.2;;;;;;;15.15;40.75684;937.4189;;;;
2020/02/16 16:10:24;;;;;;;19.8;7.8;;;;;;;15.15;41.04492;937.4156;;;;
2020/02/16 16:12:53;;;;;;;36.8;9.6;;;;;;;15.22;41.55957;937.4314;;;;
2020/02/16 16:15:23;;;;;;;29.1;10.9;;;;;;;15.2;44.06152;937.5283;;;;
2020/02/16 16:18:21;;;;;;;18.1;10.3;;;;;;;15.12;44.63184;937.5475;;;;
2020/02/16 16:21:19;;;;;;;30.5;11.9;;;;;;;15.05;44.80859;937.4567;;;;
2020/02/16 16:23:47;;;;;;;62.7;21.2;;;;;;;14.89;45.19629;937.5804;;;;
2020/02/16 16:26:31;;;;;;;50.3;17.1;;;;;;;14.73;45.91797;937.5934;;;;
2020/02/16 16:29:23;;;;;;;64.8;20.2;;;;;;;14.56;45.65723;937.7106;;;;
2020/02/16 16:31:47;;;;;;;20.3;7.2;;;;;;;14.31;49.23633;937.5987;;;;
2020/02/16 16:34:19;;;;;;;55.1;16.6;;;;;;;14.12;48.66309;937.6515;;;;
2020/02/16 16:39:27;;;;;;;47.6;19.3;;;;;;;13.89;48.82129;937.6042;;;;
2020/02/16 16:42:07;;;;;;;44.2;16.5;;;;;;;13.79;49.05176;937.6164;;;;
2020/02/16 16:44:27;;;;;;;178.7;67.8;;;;;;;13.62;49.84863;937.7003;;;;
2020/02/16 16:47:02;;;;;;;27.3;19.3;;;;;;;13.27;41.4668;937.6054;;;;
2020/02/16 16:49:37;;;;;;;6.7;5.1;;;;;;;13.12;40.58008;937.5675;;;;